createdAt,value
2023-04-19T00:01:29.475Z,3.27
2023-04-19T00:03:56.961Z,3.40
2023-04-19T00:06:24.673Z,3.30
2023-04-19T00:08:51.588Z,2.93
2023-04-19T00:11:18.345Z,3.20
2023-04-19T00:13:45.094Z,3.20
2023-04-19T00:16:11.920Z,3.43
2023-04-19T00:18:38.913Z,3.60
2023-04-19T00:21:06.087Z,3.57
2023-04-19T00:23:32.778Z,3.83
2023-04-19T00:25:59.456Z,4.10
2023-04-19T00:28:26.381Z,4.23
2023-04-19T00:30:53.122Z,3.63
2023-04-19T00:33:19.984Z,4.30
2023-04-19T00:35:46.671Z,4.53
2023-04-19T00:38:13.562Z,4.40
2023-04-19T00:40:40.281Z,4.00
2023-04-19T00:43:07.627Z,2.77
2023-04-19T00:45:35.235Z,2.93
2023-04-19T00:48:02.127Z,2.67
2023-04-19T00:50:29.030Z,3.07
2023-04-19T00:52:56.557Z,2.97
2023-04-19T00:55:24.053Z,3.10
2023-04-19T00:57:52.246Z,3.00
2023-04-19T01:00:20.090Z,2.93
2023-04-19T01:02:47.875Z,3.10
2023-04-19T01:05:15.330Z,3.17
2023-04-19T01:07:43.358Z,3.00
2023-04-19T01:10:10.743Z,3.20
2023-04-19T01:12:37.415Z,3.10
2023-04-19T01:15:04.446Z,3.10
2023-04-19T01:17:33.073Z,2.70
2023-04-19T01:20:06.826Z,3.30
2023-04-19T01:22:33.861Z,3.27
2023-04-19T01:25:00.972Z,3.23
2023-04-19T01:27:27.689Z,3.10
2023-04-19T01:29:54.389Z,2.90
2023-04-19T01:32:21.220Z,2.87
2023-04-19T01:34:50.990Z,3.23
2023-04-19T01:37:17.653Z,2.97
2023-04-19T01:39:44.387Z,2.87
2023-04-19T01:42:11.118Z,3.07
2023-04-19T01:44:37.900Z,2.87
2023-04-19T01:47:05.442Z,2.93
2023-04-19T01:49:32.450Z,2.93
2023-04-19T01:51:59.149Z,2.90
2023-04-19T01:54:25.856Z,3.00
2023-04-19T01:56:52.547Z,3.73
2023-04-19T01:59:19.232Z,3.27
2023-04-19T02:01:46.002Z,2.93
2023-04-19T02:04:12.959Z,3.10
2023-04-19T02:06:39.805Z,3.63
2023-04-19T02:09:06.548Z,3.47
2023-04-19T02:11:33.334Z,3.30
2023-04-19T02:14:00.180Z,3.10
2023-04-19T02:16:26.909Z,3.13
2023-04-19T02:18:53.686Z,3.60
2023-04-19T02:21:20.472Z,3.17
2023-04-19T02:23:47.168Z,3.40
2023-04-19T02:26:13.804Z,3.47
2023-04-19T02:28:40.587Z,3.83
2023-04-19T02:31:07.367Z,3.70
2023-04-19T02:33:34.057Z,3.70
2023-04-19T02:36:00.927Z,3.10
2023-04-19T02:38:27.623Z,3.47
2023-04-19T02:40:54.905Z,3.77
2023-04-19T02:43:21.640Z,3.27
2023-04-19T02:45:51.563Z,3.13
2023-04-19T02:48:18.301Z,3.37
2023-04-19T02:50:48.425Z,3.57
2023-04-19T02:53:15.274Z,3.27
2023-04-19T02:55:42.147Z,3.50
2023-04-19T02:58:08.816Z,3.60
2023-04-19T03:00:35.808Z,3.30
2023-04-19T03:03:04.669Z,3.47
2023-04-19T03:05:31.988Z,3.20
2023-04-19T03:07:58.964Z,3.27
2023-04-19T03:10:26.224Z,3.07
2023-04-19T03:12:52.915Z,2.90
2023-04-19T03:15:21.023Z,3.03
2023-04-19T03:17:47.778Z,3.50
2023-04-19T03:20:15.004Z,2.93
2023-04-19T03:22:41.667Z,3.53
2023-04-19T03:25:08.953Z,3.03
2023-04-19T03:27:36.809Z,3.30
2023-04-19T03:30:03.782Z,3.40
2023-04-19T03:32:31.695Z,3.40
2023-04-19T03:34:58.619Z,3.33
2023-04-19T03:37:25.350Z,3.27
2023-04-19T03:39:52.024Z,3.30
2023-04-19T03:42:18.700Z,3.10
2023-04-19T03:44:45.513Z,3.37
2023-04-19T03:47:12.179Z,3.67
2023-04-19T03:49:39.011Z,3.67
2023-04-19T03:52:05.734Z,3.53
2023-04-19T03:54:32.351Z,3.50
2023-04-19T03:56:59.497Z,3.30
2023-04-19T03:59:26.310Z,3.00
2023-04-19T04:01:53.090Z,3.00
2023-04-19T04:04:20.152Z,3.10
2023-04-19T04:06:47.312Z,2.90
2023-04-19T04:09:13.998Z,2.70
2023-04-19T04:11:40.632Z,3.03
2023-04-19T04:14:07.503Z,3.57
2023-04-19T04:16:34.199Z,3.20
2023-04-19T04:19:00.921Z,2.90
2023-04-19T04:21:28.264Z,2.80
2023-04-19T04:23:54.997Z,3.00
2023-04-19T04:26:22.006Z,2.33
2023-04-19T04:28:48.781Z,2.50
2023-04-19T04:31:18.115Z,2.20
2023-04-19T04:33:45.984Z,2.17
2023-04-19T04:36:12.881Z,3.00
2023-04-19T04:38:39.678Z,2.60
2023-04-19T04:41:06.446Z,2.50
2023-04-19T04:43:34.634Z,2.40
2023-04-19T04:46:02.030Z,2.10
2023-04-19T04:48:28.761Z,2.03
2023-04-19T04:50:55.657Z,1.73
2023-04-19T04:53:22.399Z,1.90
2023-04-19T04:55:49.144Z,2.07
2023-04-19T04:58:16.249Z,1.80
2023-04-19T05:00:43.240Z,1.60
2023-04-19T05:03:10.054Z,1.97
2023-04-19T05:05:36.955Z,1.70
2023-04-19T05:08:03.925Z,2.07
2023-04-19T05:10:30.693Z,1.70
2023-04-19T05:12:57.405Z,1.73
2023-04-19T05:15:24.118Z,1.40
2023-04-19T05:17:50.880Z,1.70
2023-04-19T05:20:17.570Z,1.80
2023-04-19T05:22:44.223Z,1.60
2023-04-19T05:25:11.333Z,1.50
2023-04-19T05:27:38.216Z,1.63
2023-04-19T05:30:06.663Z,1.83
2023-04-19T05:32:33.567Z,1.80
2023-04-19T05:35:00.312Z,2.03
2023-04-19T05:37:27.111Z,2.20
2023-04-19T05:39:53.882Z,2.00
2023-04-19T05:42:20.750Z,2.13
2023-04-19T05:44:47.439Z,1.90
2023-04-19T05:47:14.209Z,1.70
2023-04-19T05:49:42.075Z,2.07
2023-04-19T05:52:10.071Z,1.50
2023-04-19T05:54:36.859Z,1.70
2023-04-19T05:57:04.006Z,2.10
2023-04-19T05:59:30.741Z,1.93
2023-04-19T06:01:57.576Z,1.70
2023-04-19T06:04:24.794Z,1.60
2023-04-19T06:06:51.874Z,1.70
2023-04-19T06:09:18.827Z,1.93
2023-04-19T06:11:50.808Z,1.77
2023-04-19T06:14:21.524Z,1.87
2023-04-19T06:16:51.569Z,1.80
2023-04-19T06:19:18.493Z,2.30
2023-04-19T06:21:46.025Z,2.40
2023-04-19T06:24:12.845Z,2.20
2023-04-19T06:26:39.682Z,2.10
2023-04-19T06:29:08.852Z,2.23
2023-04-19T06:31:37.662Z,2.60
2023-04-19T06:34:05.742Z,2.23
2023-04-19T06:36:33.085Z,2.57
2023-04-19T06:39:00.315Z,2.22
2023-04-19T06:41:28.230Z,2.00
2023-04-19T06:43:57.061Z,2.27
2023-04-19T06:46:24.702Z,2.00
2023-04-19T06:48:52.107Z,1.87
2023-04-19T06:51:19.538Z,2.00
2023-04-19T06:53:46.870Z,2.00
2023-04-19T06:56:14.289Z,2.10
2023-04-19T06:58:42.755Z,2.03
2023-04-19T07:01:11.102Z,2.00
2023-04-19T07:03:38.555Z,1.80
2023-04-19T07:06:06.163Z,1.60
2023-04-19T07:08:48.606Z,1.57
2023-04-19T07:11:17.105Z,1.67
2023-04-19T07:13:44.678Z,1.63
2023-04-19T07:16:13.052Z,1.60
2023-04-19T07:18:40.135Z,1.80
2023-04-19T07:21:07.445Z,1.90
2023-04-19T07:23:37.830Z,1.97
2023-04-19T07:26:04.870Z,1.50
2023-04-19T07:28:32.350Z,1.90
2023-04-19T07:30:59.187Z,1.67
2023-04-19T07:33:28.148Z,1.67
2023-04-19T07:35:55.593Z,1.70
2023-04-19T07:38:22.903Z,1.90
2023-04-19T07:40:50.050Z,2.00
2023-04-19T07:43:16.856Z,1.83
2023-04-19T07:45:43.690Z,1.40
2023-04-19T07:48:10.488Z,1.60
2023-04-19T07:50:37.404Z,1.50
2023-04-19T07:53:04.106Z,1.43
2023-04-19T07:55:30.999Z,1.50
2023-04-19T07:57:57.709Z,1.70
2023-04-19T08:00:24.476Z,1.50
2023-04-19T08:02:51.450Z,1.53
2023-04-19T08:05:18.589Z,1.70
2023-04-19T08:07:45.751Z,1.37
2023-04-19T08:10:12.815Z,1.60
2023-04-19T08:12:47.681Z,1.43
2023-04-19T08:16:05.066Z,1.27
2023-04-19T08:18:11.105Z,1.23
2023-04-19T08:20:38.058Z,1.40
2023-04-19T08:23:18.150Z,1.70
2023-04-19T08:25:49.704Z,1.40
2023-04-19T08:28:17.192Z,1.50
2023-04-19T08:30:44.003Z,1.43
2023-04-19T08:33:10.954Z,1.20
2023-04-19T08:35:41.025Z,0.90
2023-04-19T08:38:08.472Z,1.00
2023-04-19T08:40:35.910Z,1.43
2023-04-19T08:43:06.895Z,1.20
2023-04-19T08:45:34.504Z,1.23
2023-04-19T08:48:02.830Z,1.60
2023-04-19T08:50:36.025Z,1.10
2023-04-19T08:53:24.042Z,1.20
2023-04-19T08:56:08.777Z,1.30
2023-04-19T08:58:57.782Z,1.37
2023-04-19T09:01:34.784Z,1.40
2023-04-19T09:04:17.036Z,1.33
2023-04-19T09:06:53.656Z,1.27
2023-04-19T09:11:55.282Z,1.10
2023-04-19T09:14:22.757Z,1.07
2023-04-19T09:16:51.889Z,1.23
2023-04-19T09:19:25.026Z,1.30
2023-04-19T09:21:54.516Z,1.27
2023-04-19T09:25:14.543Z,1.30
2023-04-19T09:27:43.731Z,1.93
2023-04-19T09:30:17.485Z,1.30
2023-04-19T09:32:49.250Z,0.80
2023-04-19T09:35:16.356Z,1.30
2023-04-19T09:40:25.056Z,1.37
2023-04-19T09:45:30.182Z,1.50
2023-04-19T09:48:05.522Z,1.07
2023-04-19T09:50:34.060Z,1.30
2023-04-19T09:53:10.689Z,1.00
2023-04-19T09:55:52.370Z,1.10
2023-04-19T09:58:24.368Z,1.17
2023-04-19T10:01:10.667Z,1.70
2023-04-19T10:03:41.811Z,1.70
2023-04-19T10:06:14.246Z,1.37
2023-04-19T10:08:43.589Z,1.67
2023-04-19T10:11:12.023Z,1.60
2023-04-19T10:13:39.720Z,1.73
2023-04-19T10:16:18.234Z,1.73
2023-04-19T10:18:49.752Z,1.83
2023-04-19T10:21:16.896Z,1.73
2023-04-19T10:23:43.702Z,1.80
2023-04-19T10:26:10.443Z,2.00
2023-04-19T10:28:38.268Z,2.00
2023-04-19T10:31:05.876Z,1.70
2023-04-19T10:33:37.970Z,1.80
2023-04-19T10:36:08.410Z,2.37
2023-04-19T10:38:49.388Z,1.77
2023-04-19T10:41:18.703Z,1.80
2023-04-19T10:44:10.188Z,2.00
2023-04-19T10:46:40.687Z,1.80
2023-04-19T10:49:09.864Z,2.50
2023-04-19T10:51:39.080Z,1.80
2023-04-19T10:54:07.706Z,1.83
2023-04-19T10:56:34.490Z,1.70
2023-04-19T10:59:01.300Z,2.07
2023-04-19T11:01:40.280Z,1.80
2023-04-19T11:04:09.045Z,1.90
2023-04-19T11:06:38.099Z,1.80
2023-04-19T11:09:10.047Z,2.00
2023-04-19T11:11:36.769Z,1.90
2023-04-19T11:14:14.109Z,2.10
2023-04-19T11:16:45.632Z,2.00
2023-04-19T11:19:20.258Z,2.03
2023-04-19T11:21:48.303Z,1.90
2023-04-19T11:24:19.087Z,2.20
2023-04-19T11:26:46.521Z,2.30
2023-04-19T11:29:13.554Z,2.07
2023-04-19T11:31:41.133Z,1.93
2023-04-19T11:34:07.891Z,1.97
2023-04-19T11:36:36.950Z,1.90
2023-04-19T11:39:06.874Z,1.90
2023-04-19T11:41:40.072Z,1.77
2023-04-19T11:44:14.241Z,1.90
2023-04-19T11:46:41.485Z,2.20
2023-04-19T11:49:08.302Z,2.27
2023-04-19T11:51:35.049Z,2.10
2023-04-19T11:54:01.910Z,1.90
2023-04-19T11:56:28.570Z,2.23
2023-04-19T11:58:58.252Z,2.10
2023-04-19T12:01:25.951Z,2.30
2023-04-19T12:03:55.220Z,1.93
2023-04-19T12:06:27.745Z,2.30
2023-04-19T12:08:56.061Z,2.53
2023-04-19T12:11:26.436Z,2.10
2023-04-19T12:14:13.065Z,2.10
2023-04-19T12:16:39.957Z,2.47
2023-04-19T12:19:17.995Z,2.13
2023-04-19T12:21:47.272Z,2.00
2023-04-19T12:24:17.297Z,1.90
2023-04-19T12:26:56.350Z,2.40
2023-04-19T12:29:23.283Z,2.20
2023-04-19T12:31:50.109Z,2.10
2023-04-19T12:34:16.902Z,2.30
2023-04-19T12:36:43.571Z,1.97
2023-04-19T12:39:10.273Z,1.70
2023-04-19T12:41:36.978Z,2.00
2023-04-19T12:44:03.934Z,2.20
2023-04-19T12:46:30.881Z,1.70
2023-04-19T12:48:57.702Z,2.30
2023-04-19T12:51:24.388Z,1.97
2023-04-19T12:53:52.540Z,2.03
2023-04-19T12:56:19.406Z,1.90
2023-04-19T12:58:46.512Z,2.10
2023-04-19T13:01:13.281Z,2.00
2023-04-19T13:03:40.252Z,1.90
2023-04-19T13:06:07.218Z,1.80
2023-04-19T13:08:43.383Z,2.13
2023-04-19T13:11:11.232Z,1.80
2023-04-19T13:13:37.977Z,2.23
2023-04-19T13:16:06.180Z,1.90
2023-04-19T13:18:32.968Z,2.10
2023-04-19T13:20:59.920Z,1.80
2023-04-19T13:23:26.660Z,2.10
2023-04-19T13:25:53.370Z,2.30
2023-04-19T13:28:22.745Z,2.30
2023-04-19T13:30:49.506Z,2.03
2023-04-19T13:33:16.262Z,2.00
2023-04-19T13:35:44.912Z,1.97
2023-04-19T13:38:11.687Z,2.20
2023-04-19T13:40:38.454Z,2.07
2023-04-19T13:43:05.205Z,2.00
2023-04-19T13:45:32.363Z,2.20
2023-04-19T13:47:59.122Z,2.20
2023-04-19T13:50:25.938Z,2.20
2023-04-19T13:52:52.956Z,2.00
2023-04-19T13:55:19.888Z,2.00
2023-04-19T13:57:46.704Z,2.03
2023-04-19T14:00:13.907Z,2.00
2023-04-19T14:02:40.889Z,2.20
2023-04-19T14:05:08.099Z,2.17
2023-04-19T14:07:34.766Z,1.90
2023-04-19T14:10:02.339Z,2.20
2023-04-19T14:12:29.063Z,2.20
2023-04-19T14:14:55.893Z,2.00
2023-04-19T14:17:22.575Z,2.30
2023-04-19T14:19:49.294Z,2.27
2023-04-19T14:22:19.000Z,2.10
2023-04-19T14:24:46.341Z,2.33
2023-04-19T14:27:13.086Z,2.30
2023-04-19T14:29:39.883Z,2.13
2023-04-19T14:32:23.570Z,2.00
2023-04-19T14:34:54.843Z,1.90
2023-04-19T14:37:22.558Z,2.10
2023-04-19T14:39:49.248Z,2.10
2023-04-19T14:42:16.145Z,2.20
2023-04-19T14:44:42.920Z,2.67
2023-04-19T14:47:09.711Z,2.67
2023-04-19T14:49:36.376Z,1.90
2023-04-19T14:52:04.036Z,2.13
2023-04-19T14:54:30.827Z,1.80
2023-04-19T14:56:57.499Z,2.20
2023-04-19T14:59:24.230Z,2.20
2023-04-19T15:01:51.047Z,2.00
2023-04-19T15:04:18.017Z,1.90
2023-04-19T15:06:44.908Z,2.00
2023-04-19T15:09:11.756Z,2.30
2023-04-19T15:11:38.567Z,2.00
2023-04-19T15:14:05.488Z,2.20
2023-04-19T15:16:32.275Z,1.80
2023-04-19T15:18:58.978Z,1.80
2023-04-19T15:21:25.735Z,2.20
2023-04-19T15:23:52.491Z,1.90
2023-04-19T15:26:19.226Z,2.07
2023-04-19T15:28:46.093Z,2.63
2023-04-19T15:31:12.884Z,1.97
2023-04-19T15:33:40.095Z,2.10
2023-04-19T15:36:07.059Z,1.90
2023-04-19T15:38:33.940Z,2.10
2023-04-19T15:41:04.039Z,2.10
2023-04-19T15:43:30.735Z,2.20
2023-04-19T15:45:57.397Z,2.40
2023-04-19T15:48:24.193Z,2.30
2023-04-19T15:50:50.950Z,2.13
2023-04-19T15:53:17.687Z,1.80
2023-04-19T15:55:46.598Z,2.10
2023-04-19T15:58:13.326Z,1.90
2023-04-19T16:00:39.932Z,2.20
2023-04-19T16:03:09.760Z,2.30
2023-04-19T16:05:36.581Z,1.80
2023-04-19T16:08:09.213Z,2.00
2023-04-19T16:10:36.282Z,2.10
2023-04-19T16:13:04.810Z,2.13
2023-04-19T16:15:32.405Z,2.00
2023-04-19T16:17:59.122Z,1.93
2023-04-19T16:20:25.783Z,2.20
2023-04-19T16:22:52.445Z,2.50
2023-04-19T16:25:19.324Z,1.90
2023-04-19T16:27:47.121Z,2.17
2023-04-19T16:30:15.543Z,2.30
2023-04-19T16:32:43.213Z,1.90
2023-04-19T16:35:10.126Z,2.10
2023-04-19T16:37:37.070Z,1.80
2023-04-19T16:40:08.475Z,1.97
2023-04-19T16:42:36.478Z,2.00
2023-04-19T16:45:04.122Z,1.90
2023-04-19T16:47:31.190Z,2.20
2023-04-19T16:49:58.698Z,2.23
2023-04-19T16:52:27.142Z,2.30
2023-04-19T16:54:54.150Z,1.83
2023-04-19T16:57:22.589Z,2.20
2023-04-19T16:59:49.579Z,2.00
2023-04-19T17:02:16.773Z,2.40
2023-04-19T17:04:43.901Z,2.23
2023-04-19T17:07:11.599Z,1.80
2023-04-19T17:09:38.345Z,1.90
2023-04-19T17:12:06.052Z,2.20
2023-04-19T17:14:35.017Z,2.00
2023-04-19T17:17:01.795Z,1.90
2023-04-19T17:19:28.514Z,1.80
2023-04-19T17:21:55.603Z,1.50
2023-04-19T17:24:22.432Z,2.00
2023-04-19T17:26:50.103Z,2.10
2023-04-19T17:29:17.062Z,2.27
2023-04-19T17:31:44.263Z,2.10
2023-04-19T17:34:11.256Z,2.00
2023-04-19T17:36:38.022Z,2.00
2023-04-19T17:39:06.598Z,2.30
2023-04-19T17:41:33.770Z,2.00
2023-04-19T17:44:00.634Z,2.27
2023-04-19T17:46:27.599Z,2.00
2023-04-19T17:48:55.538Z,2.20
2023-04-19T17:51:22.533Z,2.50
2023-04-19T17:53:49.301Z,1.93
2023-04-19T17:56:16.081Z,2.10
2023-04-19T17:58:42.824Z,2.10
2023-04-19T18:01:10.510Z,2.30
2023-04-19T18:03:38.132Z,2.27
2023-04-19T18:06:06.119Z,2.03
2023-04-19T18:08:32.906Z,2.20
2023-04-19T18:10:59.802Z,1.83
2023-04-19T18:13:27.974Z,2.20
2023-04-19T18:15:54.875Z,2.00
2023-04-19T18:18:21.644Z,2.57
2023-04-19T18:20:48.784Z,1.83
2023-04-19T18:23:15.778Z,1.80
2023-04-19T18:25:42.568Z,2.13
2023-04-19T18:28:09.307Z,1.90
2023-04-19T18:30:36.092Z,2.20
2023-04-19T18:33:02.828Z,2.10
2023-04-19T18:35:29.922Z,2.43
2023-04-19T18:37:56.614Z,1.87
2023-04-19T18:40:23.397Z,2.07
2023-04-19T18:42:50.301Z,2.60
2023-04-19T18:45:17.383Z,2.43
2023-04-19T18:47:44.185Z,2.40
2023-04-19T18:50:11.967Z,2.00
2023-04-19T18:52:38.911Z,2.40
2023-04-19T18:55:06.493Z,2.33
2023-04-19T18:57:35.069Z,2.10
2023-04-19T19:00:06.096Z,2.30
2023-04-19T19:02:36.038Z,2.17
2023-04-19T19:05:07.287Z,1.93
2023-04-19T19:07:36.629Z,2.10
2023-04-19T19:10:17.051Z,2.20
2023-04-19T19:12:47.715Z,2.30
2023-04-19T19:15:14.530Z,1.97
2023-04-19T19:17:41.417Z,1.90
2023-04-19T19:20:09.932Z,2.00
2023-04-19T19:22:36.765Z,1.80
2023-04-19T19:25:03.865Z,1.77
2023-04-19T19:27:30.720Z,1.90
2023-04-19T19:29:58.799Z,2.00
2023-04-19T19:32:26.002Z,1.80
2023-04-19T19:34:56.558Z,2.00
2023-04-19T19:37:28.599Z,1.80
2023-04-19T19:39:56.962Z,2.20
2023-04-19T19:42:25.607Z,1.70
2023-04-19T19:44:55.861Z,1.77
2023-04-19T19:47:25.144Z,1.77
2023-04-19T19:52:21.651Z,2.10
2023-04-19T19:54:48.472Z,2.30
2023-04-19T19:59:51.304Z,2.20
2023-04-19T20:02:22.167Z,2.00
2023-04-19T20:04:49.516Z,1.97
2023-04-19T20:09:46.300Z,2.23
2023-04-19T20:12:13.985Z,2.27
2023-04-19T20:14:40.901Z,2.00
2023-04-19T20:17:07.744Z,2.63
2023-04-19T20:19:35.898Z,2.47
2023-04-19T20:22:02.818Z,2.60
2023-04-19T20:24:31.767Z,2.00
2023-04-19T20:26:58.457Z,2.40
2023-04-19T20:29:25.305Z,3.27
2023-04-19T20:31:52.031Z,2.50
2023-04-19T20:34:18.717Z,2.20
2023-04-19T20:36:48.331Z,2.23
2023-04-19T20:39:15.383Z,2.40
2023-04-19T20:41:43.811Z,2.37
2023-04-19T20:44:11.737Z,2.80
2023-04-19T20:46:38.554Z,2.50
2023-04-19T20:49:05.288Z,2.07
2023-04-19T20:51:32.837Z,2.57
2023-04-19T20:53:59.850Z,2.07
2023-04-19T20:56:26.595Z,2.20
2023-04-19T20:58:53.398Z,2.23
2023-04-19T21:01:21.946Z,1.97
2023-04-19T21:03:50.925Z,2.27
2023-04-19T21:06:23.141Z,2.27
2023-04-19T21:08:50.318Z,2.20
2023-04-19T21:11:17.016Z,2.60
2023-04-19T21:13:43.754Z,2.67
2023-04-19T21:16:10.512Z,2.50
2023-04-19T21:18:37.344Z,2.83
2023-04-19T21:21:04.177Z,3.03
2023-04-19T21:23:30.948Z,2.70
2023-04-19T21:25:57.707Z,2.67
2023-04-19T21:28:25.026Z,2.50
2023-04-19T21:30:53.393Z,2.43
2023-04-19T21:33:20.100Z,2.20
2023-04-19T21:35:46.810Z,2.70
2023-04-19T21:38:13.488Z,2.57
2023-04-19T21:40:40.314Z,2.20
2023-04-19T21:43:06.993Z,2.17
2023-04-19T21:45:33.975Z,2.40
2023-04-19T21:48:00.801Z,2.33
2023-04-19T21:50:27.561Z,2.60
2023-04-19T21:52:54.263Z,2.57
2023-04-19T21:55:21.179Z,2.37
2023-04-19T21:57:47.867Z,2.87
2023-04-19T22:00:15.922Z,2.50
2023-04-19T22:02:42.946Z,2.37
2023-04-19T22:05:10.091Z,2.13
2023-04-19T22:07:38.260Z,2.27
2023-04-19T22:10:06.428Z,2.23
2023-04-19T22:12:34.103Z,2.43
2023-04-19T22:15:05.327Z,2.47
2023-04-19T22:17:32.316Z,2.47
2023-04-19T22:19:59.211Z,2.33
2023-04-19T22:22:26.088Z,2.37
2023-04-19T22:24:56.898Z,2.47
2023-04-19T22:27:25.426Z,2.17
2023-04-19T22:29:52.173Z,2.37
2023-04-19T22:32:18.917Z,2.27
2023-04-19T22:34:45.708Z,2.10
2023-04-19T22:37:12.364Z,2.20
2023-04-19T22:39:39.131Z,2.37
2023-04-19T22:42:06.025Z,2.10
2023-04-19T22:44:32.762Z,2.20
2023-04-19T22:47:00.028Z,2.40
2023-04-19T22:49:27.697Z,2.30
2023-04-19T22:51:54.915Z,3.17
2023-04-19T22:54:21.948Z,2.20
2023-04-19T22:56:48.610Z,2.27
2023-04-19T22:59:15.786Z,1.73
2023-04-19T23:01:43.091Z,2.50
2023-04-19T23:04:14.038Z,1.77
2023-04-19T23:06:42.296Z,2.20
2023-04-19T23:09:11.046Z,2.57
2023-04-19T23:11:39.137Z,2.00
2023-04-19T23:14:06.328Z,2.40
2023-04-19T23:16:33.411Z,2.40
2023-04-19T23:19:01.151Z,2.13
2023-04-19T23:21:30.032Z,2.10
2023-04-19T23:23:56.763Z,1.90
2023-04-19T23:26:23.552Z,2.10
2023-04-19T23:28:50.530Z,2.50
2023-04-19T23:31:17.317Z,2.43
2023-04-19T23:33:44.133Z,2.10
2023-04-19T23:36:11.023Z,1.80
2023-04-19T23:38:37.727Z,1.80
2023-04-19T23:41:04.466Z,1.90
2023-04-19T23:43:31.147Z,2.03
2023-04-19T23:45:57.846Z,2.00
2023-04-19T23:48:24.563Z,2.00
2023-04-19T23:50:51.388Z,2.00
2023-04-19T23:53:18.415Z,2.00
2023-04-19T23:55:45.139Z,2.00
2023-04-19T23:58:11.816Z,2.03
